Time;durP1;ratioP1;P1;durP2;ratioP2;P2;SDS_P1;SDS_P2;PMS_P1;PMS_P2;Temp;Humidity;BMP_temperature;BMP_pressure;BME280_temperature;BME280_humidity;BME280_pressure;Samples;Min_cycle;Max_cycle;Signal;HPM_P1;HPM_P2
2024/03/07 00:01:57;;;;;;;34.28;19.65;;;;;;;;;;4942831;28;20035;-77
2024/03/07 00:04:22;;;;;;;31.75;19.08;;;;;;;;;;4944435;29;20125;-77
2024/03/07 00:06:48;;;;;;;30.88;18.42;;;;;;;;;;4924667;29;20405;-77
2024/03/07 00:09:15;;;;;;;29.63;17.60;;;;;;;;;;4945557;28;20046;-76
2024/03/07 00:11:40;;;;;;;31.38;17.98;;;;;;;;;;4928650;28;20031;-76
2024/03/07 00:14:06;;;;;;;31.00;18.58;;;;;;;;;;4944665;29;20156;-76
2024/03/07 00:16:33;;;;;;;29.17;17.05;;;;;;;;;;4943040;29;20034;-76
2024/03/07 00:18:59;;;;;;;30.10;18.02;;;;;;;;;;4945506;29;20035;-75
2024/03/07 00:21:24;;;;;;;31.95;18.95;;;;;;;;;;4928555;29;20508;-76
2024/03/07 00:23:49;;;;;;;32.85;18.98;;;;;;;;;;4945974;29;20027;-76
2024/03/07 00:26:15;;;;;;;32.85;18.83;;;;;;;;;;4942449;28;21575;-76
2024/03/07 00:28:40;;;;;;;30.38;18.15;;;;;;;;;;4944245;29;20082;-75
2024/03/07 00:31:07;;;;;;;33.78;18.48;;;;;;;;;;4943235;28;20230;-76
2024/03/07 00:33:33;;;;;;;33.30;19.30;;;;;;;;;;4944124;29;20091;-75
2024/03/07 00:35:58;;;;;;;30.77;18.60;;;;;;;;;;4943909;28;20035;-75
2024/03/07 00:38:23;;;;;;;29.45;17.58;;;;;;;;;;4948832;29;20027;-75
2024/03/07 00:40:49;;;;;;;31.80;17.25;;;;;;;;;;4943984;29;20027;-76
2024/03/07 00:43:14;;;;;;;32.15;18.10;;;;;;;;;;4942230;29;20028;-75
2024/03/07 00:45:40;;;;;;;28.80;18.00;;;;;;;;;;4939009;29;20046;-76
2024/03/07 00:48:05;;;;;;;29.73;18.58;;;;;;;;;;4944954;28;20039;-76
2024/03/07 00:50:32;;;;;;;30.33;18.77;;;;;;;;;;4940994;28;21023;-76
2024/03/07 00:52:57;;;;;;;31.65;18.60;;;;;;;;;;4940260;29;20050;-76
2024/03/07 00:55:22;;;;;;;30.83;18.33;;;;;;;;;;4944688;28;20050;-76
2024/03/07 00:57:48;;;;;;;31.17;18.30;;;;;;;;;;4945712;29;20166;-75
2024/03/07 01:00:14;;;;;;;30.83;18.75;;;;;;;;;;4928496;29;20035;-75
2024/03/07 01:02:45;;;;;;;32.53;18.70;;;;;;;;;;4925927;28;20434;-76
2024/03/07 01:05:13;;;;;;;33.47;19.13;;;;;;;;;;4945243;29;20045;-76
2024/03/07 01:07:39;;;;;;;33.10;19.60;;;;;;;;;;4942539;29;20033;-76
2024/03/07 01:10:06;;;;;;;34.70;18.85;;;;;;;;;;4940738;28;20770;-76
2024/03/07 01:12:33;;;;;;;37.25;19.85;;;;;;;;;;4940445;28;20035;-76
2024/03/07 01:15:00;;;;;;;32.05;18.70;;;;;;;;;;4927701;29;20031;-76
2024/03/07 01:17:25;;;;;;;29.20;17.45;;;;;;;;;;4941657;28;20082;-76
2024/03/07 01:19:51;;;;;;;33.63;18.67;;;;;;;;;;4942546;29;20389;-77
2024/03/07 01:22:16;;;;;;;34.72;20.58;;;;;;;;;;4941878;29;20846;-77
2024/03/07 01:24:43;;;;;;;35.03;19.88;;;;;;;;;;4944420;29;20563;-77
2024/03/07 01:27:08;;;;;;;32.47;18.95;;;;;;;;;;4945413;28;20039;-77
2024/03/07 01:29:34;;;;;;;31.38;18.23;;;;;;;;;;4944454;29;20097;-77
2024/03/07 01:32:00;;;;;;;34.50;20.90;;;;;;;;;;4942008;28;20027;-77
2024/03/07 01:34:25;;;;;;;37.17;20.40;;;;;;;;;;4942705;28;20117;-78
2024/03/07 01:36:51;;;;;;;32.92;18.92;;;;;;;;;;4943659;29;20121;-77
2024/03/07 01:39:17;;;;;;;34.05;19.58;;;;;;;;;;4925224;29;20015;-77
2024/03/07 01:41:43;;;;;;;34.95;18.80;;;;;;;;;;4943139;29;20032;-77
2024/03/07 01:44:09;;;;;;;35.90;20.25;;;;;;;;;;4938304;28;20405;-77
2024/03/07 01:46:34;;;;;;;35.08;20.15;;;;;;;;;;4941493;29;20046;-77
2024/03/07 01:49:00;;;;;;;32.45;19.42;;;;;;;;;;4941943;28;20031;-77
2024/03/07 01:51:25;;;;;;;38.33;20.33;;;;;;;;;;4941155;28;20060;-77
2024/03/07 01:53:52;;;;;;;34.22;19.55;;;;;;;;;;4942690;29;22420;-77
2024/03/07 01:56:18;;;;;;;35.25;19.73;;;;;;;;;;4942885;29;20074;-77
2024/03/07 01:58:46;;;;;;;35.88;20.20;;;;;;;;;;4943502;29;20028;-77
2024/03/07 02:01:14;;;;;;;35.17;19.92;;;;;;;;;;4943483;29;20062;-77
2024/03/07 02:03:39;;;;;;;36.30;20.25;;;;;;;;;;4941154;28;20521;-77
2024/03/07 02:06:05;;;;;;;34.40;19.80;;;;;;;;;;4941759;29;20027;-77
2024/03/07 02:08:31;;;;;;;33.35;20.50;;;;;;;;;;4943626;29;20027;-76
2024/03/07 02:10:57;;;;;;;35.50;20.60;;;;;;;;;;4944067;28;20129;-78
2024/03/07 02:13:23;;;;;;;37.58;19.60;;;;;;;;;;4942129;28;20553;-77
2024/03/07 02:15:48;;;;;;;34.70;19.65;;;;;;;;;;4938369;28;20089;-77
2024/03/07 02:18:14;;;;;;;36.67;20.05;;;;;;;;;;4928207;29;20788;-77
2024/03/07 02:20:48;;;;;;;33.45;19.55;;;;;;;;;;4940008;29;20108;-77
2024/03/07 02:23:14;;;;;;;35.85;19.33;;;;;;;;;;4937786;28;20032;-77
2024/03/07 02:25:40;;;;;;;32.63;19.55;;;;;;;;;;4929405;29;20042;-77
2024/03/07 02:28:05;;;;;;;34.30;19.02;;;;;;;;;;4944857;28;20039;-77
2024/03/07 02:30:34;;;;;;;37.17;21.40;;;;;;;;;;4928349;29;20035;-78
2024/03/07 02:33:06;;;;;;;33.83;20.33;;;;;;;;;;4929621;29;20352;-77
2024/03/07 02:35:37;;;;;;;33.20;20.17;;;;;;;;;;4945544;28;20134;-77
2024/03/07 02:38:04;;;;;;;33.80;19.93;;;;;;;;;;4945996;28;20028;-78
2024/03/07 02:40:30;;;;;;;33.80;20.13;;;;;;;;;;4943925;29;20059;-77
2024/03/07 02:42:55;;;;;;;34.28;20.17;;;;;;;;;;4945561;28;20062;-77
2024/03/07 02:45:21;;;;;;;32.92;19.27;;;;;;;;;;4947033;29;20066;-77
2024/03/07 02:47:46;;;;;;;33.03;19.45;;;;;;;;;;4926974;28;20035;-78
2024/03/07 02:50:11;;;;;;;34.20;19.17;;;;;;;;;;4931657;29;20500;-77
2024/03/07 02:52:37;;;;;;;36.95;21.33;;;;;;;;;;4944618;29;20035;-78
2024/03/07 02:55:05;;;;;;;33.72;20.40;;;;;;;;;;4945936;29;20037;-77
2024/03/07 02:57:31;;;;;;;35.20;19.35;;;;;;;;;;4943366;29;20035;-77
2024/03/07 02:59:56;;;;;;;33.35;18.98;;;;;;;;;;4926295;28;20024;-77
2024/03/07 03:02:22;;;;;;;35.55;20.85;;;;;;;;;;4943570;28;21046;-77
2024/03/07 03:04:48;;;;;;;31.15;19.17;;;;;;;;;;4944631;29;20027;-77
2024/03/07 03:07:13;;;;;;;35.67;20.50;;;;;;;;;;4945127;29;20586;-77
2024/03/07 03:09:43;;;;;;;34.67;19.80;;;;;;;;;;4929156;29;20682;-77
2024/03/07 03:12:11;;;;;;;34.35;20.17;;;;;;;;;;4946510;29;20083;-77
2024/03/07 03:14:36;;;;;;;38.28;20.95;;;;;;;;;;4943544;29;20050;-77
2024/03/07 03:17:02;;;;;;;33.40;19.92;;;;;;;;;;4943524;28;20075;-77
2024/03/07 03:19:28;;;;;;;35.10;18.98;;;;;;;;;;4943279;29;20865;-77
2024/03/07 03:21:55;;;;;;;35.67;20.48;;;;;;;;;;4944353;29;20035;-77
2024/03/07 03:24:21;;;;;;;32.38;20.17;;;;;;;;;;4945021;29;20389;-77
2024/03/07 03:26:46;;;;;;;32.38;19.58;;;;;;;;;;4944478;29;20034;-77
2024/03/07 03:29:13;;;;;;;35.47;21.08;;;;;;;;;;4943166;28;20114;-77
2024/03/07 03:31:39;;;;;;;35.58;20.67;;;;;;;;;;4940724;28;20043;-77
2024/03/07 03:34:04;;;;;;;35.65;21.50;;;;;;;;;;4945013;29;20027;-77
2024/03/07 03:36:29;;;;;;;35.47;20.75;;;;;;;;;;4940781;28;20023;-77
2024/03/07 03:38:55;;;;;;;37.92;21.25;;;;;;;;;;4934021;29;20038;-77
2024/03/07 03:41:20;;;;;;;38.47;20.73;;;;;;;;;;4946281;29;20509;-77
2024/03/07 03:43:47;;;;;;;35.15;21.02;;;;;;;;;;4931984;29;20113;-77
2024/03/07 03:46:12;;;;;;;37.05;21.52;;;;;;;;;;4944488;28;20027;-77
2024/03/07 03:48:41;;;;;;;38.63;20.92;;;;;;;;;;4944384;29;20470;-77
2024/03/07 03:51:08;;;;;;;38.15;21.25;;;;;;;;;;4929447;29;20038;-77
2024/03/07 03:53:33;;;;;;;35.40;21.33;;;;;;;;;;4945130;29;20031;-77
2024/03/07 03:55:59;;;;;;;38.58;20.63;;;;;;;;;;4942735;28;20540;-77
2024/03/07 03:58:25;;;;;;;33.83;20.13;;;;;;;;;;4946612;29;20066;-77
2024/03/07 04:00:50;;;;;;;38.40;20.85;;;;;;;;;;4939536;28;20375;-77
2024/03/07 04:03:16;;;;;;;36.40;21.15;;;;;;;;;;4944943;28;20058;-77
2024/03/07 04:05:41;;;;;;;36.15;21.63;;;;;;;;;;4927812;29;20077;-77
2024/03/07 04:08:07;;;;;;;38.42;21.13;;;;;;;;;;4943053;29;20385;-77
2024/03/07 04:10:33;;;;;;;36.53;20.67;;;;;;;;;;4941935;29;20039;-77
2024/03/07 04:12:58;;;;;;;37.22;20.75;;;;;;;;;;4944690;29;20031;-77
2024/03/07 04:15:26;;;;;;;38.35;21.55;;;;;;;;;;4924332;29;20038;-78
2024/03/07 04:17:52;;;;;;;38.70;22.10;;;;;;;;;;4944434;29;20059;-77
2024/03/07 04:20:17;;;;;;;37.03;21.58;;;;;;;;;;4943700;29;20425;-77
2024/03/07 04:22:43;;;;;;;36.22;21.02;;;;;;;;;;4928717;29;20134;-77
2024/03/07 04:25:09;;;;;;;40.67;20.65;;;;;;;;;;4945888;29;20485;-77
2024/03/07 04:27:39;;;;;;;37.03;21.85;;;;;;;;;;4940089;28;20132;-78
2024/03/07 04:30:07;;;;;;;40.58;21.60;;;;;;;;;;4940833;29;20027;-77
2024/03/07 04:32:34;;;;;;;38.58;22.23;;;;;;;;;;4940753;28;20023;-77
2024/03/07 04:35:00;;;;;;;35.25;21.13;;;;;;;;;;4944059;29;20070;-78
2024/03/07 04:37:27;;;;;;;37.72;21.95;;;;;;;;;;4940313;28;20030;-77
2024/03/07 04:39:53;;;;;;;39.38;22.25;;;;;;;;;;4944115;29;20255;-77
2024/03/07 04:42:18;;;;;;;38.70;21.70;;;;;;;;;;4946036;29;20106;-77
2024/03/07 04:44:43;;;;;;;36.70;21.85;;;;;;;;;;4943512;29;20046;-77
2024/03/07 04:47:09;;;;;;;40.60;20.63;;;;;;;;;;4941597;28;20035;-77
2024/03/07 04:49:34;;;;;;;37.88;20.92;;;;;;;;;;4942532;29;20082;-76
2024/03/07 04:52:01;;;;;;;37.17;21.15;;;;;;;;;;4942725;29;20090;-76
2024/03/07 04:54:28;;;;;;;36.42;22.23;;;;;;;;;;4943044;29;20077;-76
2024/03/07 04:56:54;;;;;;;36.30;20.40;;;;;;;;;;4942449;28;20035;-76
2024/03/07 04:59:21;;;;;;;39.67;22.17;;;;;;;;;;4928941;29;20046;-76
2024/03/07 05:01:47;;;;;;;35.92;20.77;;;;;;;;;;4944661;28;20110;-76
2024/03/07 05:04:14;;;;;;;34.85;21.40;;;;;;;;;;4939663;29;20041;-77
2024/03/07 05:06:39;;;;;;;38.92;21.92;;;;;;;;;;4942495;29;20046;-76
2024/03/07 05:09:07;;;;;;;37.65;21.35;;;;;;;;;;4941827;29;20470;-76
2024/03/07 05:11:33;;;;;;;35.15;21.42;;;;;;;;;;4939769;29;20041;-76
2024/03/07 05:14:00;;;;;;;39.90;22.17;;;;;;;;;;4941125;29;20031;-76
2024/03/07 05:16:29;;;;;;;36.58;21.88;;;;;;;;;;4940511;28;20470;-76
2024/03/07 05:18:58;;;;;;;38.35;22.63;;;;;;;;;;4941551;29;20122;-76
2024/03/07 05:23:59;;;;;;;37.90;21.08;;;;;;;;;;4941434;29;20114;-77
2024/03/07 05:26:26;;;;;;;39.25;21.65;;;;;;;;;;4942029;28;20110;-76
2024/03/07 05:28:51;;;;;;;41.00;23.60;;;;;;;;;;4943732;28;20050;-76
2024/03/07 05:31:18;;;;;;;37.72;21.48;;;;;;;;;;4941981;28;20789;-76
2024/03/07 05:33:44;;;;;;;37.53;21.92;;;;;;;;;;4941029;29;20165;-76
2024/03/07 05:36:15;;;;;;;37.90;21.27;;;;;;;;;;4945277;28;20794;-76
2024/03/07 05:38:44;;;;;;;41.03;22.63;;;;;;;;;;4938742;29;20039;-76
2024/03/07 05:41:13;;;;;;;36.33;21.17;;;;;;;;;;4945220;29;20035;-76
2024/03/07 05:43:39;;;;;;;41.95;22.58;;;;;;;;;;4944157;28;20110;-76
2024/03/07 05:46:06;;;;;;;39.10;22.02;;;;;;;;;;4933672;29;20364;-76
2024/03/07 05:48:32;;;;;;;40.08;23.30;;;;;;;;;;4948409;28;20081;-76
2024/03/07 05:50:58;;;;;;;41.25;22.98;;;;;;;;;;4945651;28;20104;-76
2024/03/07 05:53:24;;;;;;;39.47;22.52;;;;;;;;;;4948411;28;20838;-76
2024/03/07 05:55:49;;;;;;;36.90;21.23;;;;;;;;;;4950334;29;20034;-76
2024/03/07 05:58:16;;;;;;;38.70;22.42;;;;;;;;;;4950774;28;20024;-76
2024/03/07 06:00:46;;;;;;;39.80;21.80;;;;;;;;;;4950540;28;20022;-76
2024/03/07 06:03:16;;;;;;;40.83;21.67;;;;;;;;;;4950258;28;20035;-76
2024/03/07 06:05:42;;;;;;;41.65;23.02;;;;;;;;;;4945437;29;20039;-76
2024/03/07 06:08:08;;;;;;;43.67;23.23;;;;;;;;;;4936100;29;20027;-76
2024/03/07 06:10:33;;;;;;;39.38;22.77;;;;;;;;;;4950212;28;20027;-76
2024/03/07 06:12:59;;;;;;;37.65;21.75;;;;;;;;;;4935126;29;20109;-76
2024/03/07 06:15:25;;;;;;;37.40;22.67;;;;;;;;;;4949560;28;20023;-76
2024/03/07 06:17:50;;;;;;;41.00;22.80;;;;;;;;;;4937532;29;20031;-76
2024/03/07 06:20:25;;;;;;;41.25;23.02;;;;;;;;;;4955591;29;20050;-76
2024/03/07 06:22:52;;;;;;;38.67;22.33;;;;;;;;;;4950377;28;20481;-76
2024/03/07 06:25:33;;;;;;;41.03;22.90;;;;;;;;;;4937755;29;20051;-76
2024/03/07 06:27:59;;;;;;;40.10;21.73;;;;;;;;;;4953440;28;20031;-76
2024/03/07 06:30:25;;;;;;;40.90;22.25;;;;;;;;;;4954656;28;20678;-76
2024/03/07 06:32:51;;;;;;;40.38;21.67;;;;;;;;;;4953132;29;20378;-76
2024/03/07 06:35:19;;;;;;;37.50;21.67;;;;;;;;;;4954303;29;20038;-76
2024/03/07 06:37:44;;;;;;;39.85;21.88;;;;;;;;;;4938709;29;20106;-76
2024/03/07 06:40:10;;;;;;;38.67;22.02;;;;;;;;;;4950481;28;20102;-76
2024/03/07 06:42:36;;;;;;;39.97;22.88;;;;;;;;;;4954621;28;20078;-76
2024/03/07 06:45:03;;;;;;;38.63;22.25;;;;;;;;;;4954211;29;20503;-75
2024/03/07 06:47:28;;;;;;;39.95;21.83;;;;;;;;;;4950021;28;20051;-76
2024/03/07 06:49:54;;;;;;;40.95;22.33;;;;;;;;;;4953548;28;20066;-77
2024/03/07 06:52:20;;;;;;;37.72;21.30;;;;;;;;;;4951509;28;20027;-76
2024/03/07 06:54:46;;;;;;;37.30;21.55;;;;;;;;;;4948664;29;20489;-77
2024/03/07 06:57:11;;;;;;;38.30;22.73;;;;;;;;;;4947501;28;20035;-76
2024/03/07 06:59:37;;;;;;;39.58;21.95;;;;;;;;;;4952259;29;20035;-76
2024/03/07 07:02:03;;;;;;;40.17;22.40;;;;;;;;;;4955150;28;20035;-76
2024/03/07 07:04:41;;;;;;;37.72;21.83;;;;;;;;;;4939148;29;20023;-76
2024/03/07 07:07:07;;;;;;;36.65;21.17;;;;;;;;;;4954001;28;20106;-76
2024/03/07 07:09:32;;;;;;;36.88;20.92;;;;;;;;;;4936779;28;20506;-77
2024/03/07 07:11:58;;;;;;;37.47;21.75;;;;;;;;;;4934336;29;20090;-77
2024/03/07 07:14:23;;;;;;;40.33;21.65;;;;;;;;;;4939022;29;20446;-77
2024/03/07 07:16:48;;;;;;;38.15;21.55;;;;;;;;;;4937296;29;20480;-77
2024/03/07 07:19:14;;;;;;;39.80;22.05;;;;;;;;;;4954422;28;20489;-77
2024/03/07 07:21:39;;;;;;;38.17;21.80;;;;;;;;;;4951171;29;20520;-77
2024/03/07 07:24:05;;;;;;;37.58;21.55;;;;;;;;;;4953988;29;20727;-77
2024/03/07 07:26:32;;;;;;;34.38;20.80;;;;;;;;;;4934549;29;20062;-77
2024/03/07 07:28:58;;;;;;;36.83;21.20;;;;;;;;;;4932619;29;20418;-77
2024/03/07 07:31:24;;;;;;;35.25;20.77;;;;;;;;;;4948965;28;20024;-77
2024/03/07 07:33:50;;;;;;;38.65;21.63;;;;;;;;;;4950305;28;20036;-77
2024/03/07 07:36:15;;;;;;;36.80;21.85;;;;;;;;;;4950672;29;20381;-77
2024/03/07 07:38:41;;;;;;;36.60;21.50;;;;;;;;;;4940686;28;20030;-77
2024/03/07 07:41:06;;;;;;;38.58;21.85;;;;;;;;;;4946491;29;20154;-77
2024/03/07 07:43:32;;;;;;;37.38;20.98;;;;;;;;;;4952910;29;20133;-77
2024/03/07 07:45:57;;;;;;;36.25;20.75;;;;;;;;;;4949831;29;20031;-77
2024/03/07 07:48:22;;;;;;;37.33;20.92;;;;;;;;;;4949910;28;20038;-77
2024/03/07 07:50:50;;;;;;;37.70;21.50;;;;;;;;;;4949144;28;20441;-78
2024/03/07 07:53:16;;;;;;;42.03;21.85;;;;;;;;;;4940809;29;20027;-78
2024/03/07 07:55:42;;;;;;;35.65;20.80;;;;;;;;;;4944817;28;20568;-78
2024/03/07 07:58:07;;;;;;;35.40;20.83;;;;;;;;;;4948959;28;20030;-78
2024/03/07 08:00:34;;;;;;;36.35;20.85;;;;;;;;;;4934515;29;20036;-78
2024/03/07 08:03:04;;;;;;;34.38;20.60;;;;;;;;;;4948836;28;20035;-77
2024/03/07 08:05:33;;;;;;;34.17;20.65;;;;;;;;;;4943183;29;20524;-78
2024/03/07 08:08:04;;;;;;;33.47;20.45;;;;;;;;;;4948368;29;20118;-78
2024/03/07 08:10:30;;;;;;;33.67;19.70;;;;;;;;;;4936203;29;20042;-78
2024/03/07 08:13:00;;;;;;;34.38;20.17;;;;;;;;;;4954584;29;20047;-78
2024/03/07 08:15:27;;;;;;;35.90;20.55;;;;;;;;;;4937573;29;20058;-78
2024/03/07 08:17:55;;;;;;;35.13;20.42;;;;;;;;;;4948304;28;20039;-78
2024/03/07 08:20:22;;;;;;;36.83;20.45;;;;;;;;;;4944206;29;20114;-78
2024/03/07 08:22:51;;;;;;;31.70;19.38;;;;;;;;;;4947016;28;20026;-78
2024/03/07 08:25:17;;;;;;;32.05;18.90;;;;;;;;;;4933761;29;20032;-79
2024/03/07 08:27:45;;;;;;;33.17;19.15;;;;;;;;;;4948614;28;20027;-78
2024/03/07 08:30:12;;;;;;;32.17;18.92;;;;;;;;;;4954593;29;20027;-79
2024/03/07 08:32:50;;;;;;;30.48;18.17;;;;;;;;;;4948225;28;20039;-78
2024/03/07 08:35:16;;;;;;;28.77;18.63;;;;;;;;;;4948103;29;20078;-78
2024/03/07 08:37:46;;;;;;;31.20;18.95;;;;;;;;;;4952526;28;20039;-78
2024/03/07 08:40:19;;;;;;;29.80;17.90;;;;;;;;;;4947016;29;20090;-78
2024/03/07 08:42:46;;;;;;;29.98;17.77;;;;;;;;;;4949924;28;20031;-78
2024/03/07 08:45:16;;;;;;;31.25;18.55;;;;;;;;;;4943078;29;20028;-78
2024/03/07 08:47:43;;;;;;;27.25;17.00;;;;;;;;;;4940029;28;20030;-78
2024/03/07 08:50:09;;;;;;;29.10;17.58;;;;;;;;;;4933631;29;20110;-78
2024/03/07 08:52:39;;;;;;;27.05;17.30;;;;;;;;;;4950735;28;20130;-77
2024/03/07 08:55:09;;;;;;;28.95;17.55;;;;;;;;;;4934734;28;20031;-78
2024/03/07 08:57:34;;;;;;;29.05;17.75;;;;;;;;;;4949216;29;20035;-78
2024/03/07 09:00:01;;;;;;;31.45;17.20;;;;;;;;;;4949270;29;20086;-78
2024/03/07 09:02:26;;;;;;;28.38;17.90;;;;;;;;;;4949547;28;20031;-77
2024/03/07 09:04:52;;;;;;;28.25;17.63;;;;;;;;;;4948476;28;20114;-78
2024/03/07 09:07:17;;;;;;;28.70;17.70;;;;;;;;;;4933851;29;20062;-78
2024/03/07 09:09:45;;;;;;;25.95;17.25;;;;;;;;;;4951593;29;20028;-78
2024/03/07 09:12:10;;;;;;;28.85;17.23;;;;;;;;;;4947853;28;20035;-78
2024/03/07 09:14:37;;;;;;;28.42;17.90;;;;;;;;;;4936796;29;20512;-78
2024/03/07 09:17:04;;;;;;;28.25;17.50;;;;;;;;;;4944731;29;20106;-78
2024/03/07 09:19:32;;;;;;;25.98;16.48;;;;;;;;;;4937055;29;20027;-77
2024/03/07 09:21:58;;;;;;;28.83;18.08;;;;;;;;;;4935339;29;20554;-78
2024/03/07 09:24:23;;;;;;;28.17;17.00;;;;;;;;;;4946909;29;20031;-78
2024/03/07 09:26:52;;;;;;;28.08;17.05;;;;;;;;;;4952709;29;20409;-78
2024/03/07 09:29:22;;;;;;;30.60;17.85;;;;;;;;;;4935860;29;20511;-78
2024/03/07 09:31:51;;;;;;;27.98;17.67;;;;;;;;;;4943609;29;20027;-76
2024/03/07 09:34:18;;;;;;;29.90;17.08;;;;;;;;;;4946650;28;20039;-76
2024/03/07 09:36:44;;;;;;;27.23;16.67;;;;;;;;;;4939867;29;20031;-76
2024/03/07 09:39:09;;;;;;;24.85;15.88;;;;;;;;;;4944434;29;20024;-76
2024/03/07 09:41:36;;;;;;;26.95;16.60;;;;;;;;;;4945820;29;20035;-76
2024/03/07 09:44:02;;;;;;;26.05;16.25;;;;;;;;;;4945070;29;20040;-76
2024/03/07 09:46:28;;;;;;;26.35;16.65;;;;;;;;;;4946041;29;20023;-76
2024/03/07 09:48:55;;;;;;;25.20;15.82;;;;;;;;;;4952041;28;20038;-76
2024/03/07 09:51:21;;;;;;;30.20;15.57;;;;;;;;;;4954546;28;20059;-76
2024/03/07 09:53:51;;;;;;;26.90;15.13;;;;;;;;;;4946667;28;20453;-76
2024/03/07 09:56:21;;;;;;;24.23;15.63;;;;;;;;;;4951194;29;20027;-76
2024/03/07 09:58:49;;;;;;;26.15;15.40;;;;;;;;;;4949448;29;20035;-76
2024/03/07 10:01:16;;;;;;;23.38;15.13;;;;;;;;;;4951019;29;20060;-76
2024/03/07 10:03:46;;;;;;;21.83;14.77;;;;;;;;;;4942279;28;20086;-76
2024/03/07 10:06:13;;;;;;;23.42;13.80;;;;;;;;;;4950457;28;20031;-76
2024/03/07 10:08:40;;;;;;;23.17;14.20;;;;;;;;;;4948940;29;20096;-76
2024/03/07 10:11:06;;;;;;;24.38;15.35;;;;;;;;;;4946153;29;20036;-76
2024/03/07 10:13:31;;;;;;;23.33;14.20;;;;;;;;;;4933151;29;20035;-76
2024/03/07 10:15:59;;;;;;;21.58;14.48;;;;;;;;;;4946449;29;20418;-76
2024/03/07 10:18:27;;;;;;;23.20;14.27;;;;;;;;;;4947816;28;20023;-75
2024/03/07 10:20:53;;;;;;;22.40;14.18;;;;;;;;;;4946640;29;20107;-75
2024/03/07 10:23:20;;;;;;;24.20;13.88;;;;;;;;;;4948611;28;20031;-75
2024/03/07 10:25:47;;;;;;;22.25;13.93;;;;;;;;;;4943245;29;20023;-76
2024/03/07 10:28:12;;;;;;;22.48;14.00;;;;;;;;;;4951926;28;20027;-76
2024/03/07 10:30:44;;;;;;;27.77;14.50;;;;;;;;;;4953533;28;20031;-76
2024/03/07 10:33:11;;;;;;;25.10;13.93;;;;;;;;;;4940623;28;20081;-75
2024/03/07 10:35:37;;;;;;;23.05;13.93;;;;;;;;;;4952105;28;20416;-75
2024/03/07 10:38:11;;;;;;;21.48;13.48;;;;;;;;;;4948995;29;20116;-76
2024/03/07 10:40:40;;;;;;;23.63;13.40;;;;;;;;;;4941397;28;20054;-76
2024/03/07 10:43:09;;;;;;;21.40;13.00;;;;;;;;;;4934873;29;20027;-76
2024/03/07 10:45:41;;;;;;;22.95;13.90;;;;;;;;;;4947797;28;20031;-75
2024/03/07 10:48:11;;;;;;;20.80;13.50;;;;;;;;;;4946575;28;20054;-75
2024/03/07 10:50:47;;;;;;;21.25;12.90;;;;;;;;;;4957076;28;20034;-76
2024/03/07 10:53:15;;;;;;;21.00;13.23;;;;;;;;;;4951638;28;20504;-76
2024/03/07 10:56:14;;;;;;;22.30;13.70;;;;;;;;;;4953755;29;20043;-76
2024/03/07 10:59:02;;;;;;;20.75;12.68;;;;;;;;;;4942765;29;20452;-76
2024/03/07 11:01:33;;;;;;;22.67;13.35;;;;;;;;;;4952224;28;20462;-76
2024/03/07 11:03:59;;;;;;;22.10;12.50;;;;;;;;;;4948751;28;20027;-76
2024/03/07 11:06:26;;;;;;;18.13;11.35;;;;;;;;;;4949475;29;20023;-76
2024/03/07 11:08:51;;;;;;;18.90;11.70;;;;;;;;;;4954220;29;20609;-76
2024/03/07 11:11:17;;;;;;;18.48;12.05;;;;;;;;;;4934423;29;20122;-76
2024/03/07 11:13:45;;;;;;;18.95;11.27;;;;;;;;;;4933654;29;20059;-75
2024/03/07 11:16:13;;;;;;;19.40;12.07;;;;;;;;;;4933694;29;20109;-76
2024/03/07 11:18:40;;;;;;;20.27;12.30;;;;;;;;;;4948808;28;20481;-76
2024/03/07 11:21:07;;;;;;;19.00;12.40;;;;;;;;;;4934227;29;20536;-75
2024/03/07 11:23:38;;;;;;;19.60;12.45;;;;;;;;;;4954995;29;20023;-76
2024/03/07 11:26:09;;;;;;;21.13;12.68;;;;;;;;;;4935383;28;20023;-76
2024/03/07 11:28:40;;;;;;;22.05;12.85;;;;;;;;;;4953665;28;20023;-75
2024/03/07 11:31:25;;;;;;;19.42;12.48;;;;;;;;;;4950202;28;20125;-75
2024/03/07 11:34:16;;;;;;;19.75;12.65;;;;;;;;;;4939176;29;20038;-76
2024/03/07 11:36:44;;;;;;;19.48;12.48;;;;;;;;;;4951518;29;20023;-76
2024/03/07 11:39:44;;;;;;;18.60;12.32;;;;;;;;;;4950434;29;20055;-76
2024/03/07 11:42:19;;;;;;;19.75;12.52;;;;;;;;;;4951166;29;20057;-76
2024/03/07 11:44:46;;;;;;;17.85;11.05;;;;;;;;;;4951263;29;20027;-75
2024/03/07 11:47:13;;;;;;;18.98;12.23;;;;;;;;;;4938678;29;20122;-75
2024/03/07 11:49:38;;;;;;;20.70;12.35;;;;;;;;;;4954031;29;20122;-75
2024/03/07 11:52:11;;;;;;;20.15;13.10;;;;;;;;;;4935881;29;20577;-76
2024/03/07 11:54:41;;;;;;;20.48;12.57;;;;;;;;;;4949777;28;20047;-75
2024/03/07 11:57:12;;;;;;;21.10;12.45;;;;;;;;;;4946311;29;20059;-75
2024/03/07 11:59:45;;;;;;;21.00;12.20;;;;;;;;;;4950403;28;20512;-75
2024/03/07 12:02:13;;;;;;;18.52;12.20;;;;;;;;;;4948469;28;20039;-75
2024/03/07 12:04:40;;;;;;;18.50;12.13;;;;;;;;;;4949760;28;20042;-75
2024/03/07 12:07:06;;;;;;;18.92;11.27;;;;;;;;;;4943644;29;20027;-75
2024/03/07 12:09:35;;;;;;;20.48;12.45;;;;;;;;;;4933822;29;20054;-75
2024/03/07 12:12:02;;;;;;;21.48;12.95;;;;;;;;;;4949104;29;20481;-75
2024/03/07 12:14:27;;;;;;;20.13;12.10;;;;;;;;;;4952951;28;20035;-76
2024/03/07 12:16:53;;;;;;;20.25;12.45;;;;;;;;;;4948660;28;20753;-76
2024/03/07 12:19:19;;;;;;;19.83;12.68;;;;;;;;;;4952917;28;20083;-76
2024/03/07 12:21:46;;;;;;;18.67;11.65;;;;;;;;;;4950345;28;20035;-75
2024/03/07 12:24:13;;;;;;;20.42;12.48;;;;;;;;;;4948114;29;20028;-76
2024/03/07 12:26:38;;;;;;;19.10;11.85;;;;;;;;;;4949914;28;20541;-77
2024/03/07 12:29:11;;;;;;;19.05;11.65;;;;;;;;;;4947493;28;20115;-77
2024/03/07 12:31:40;;;;;;;;;;;;;;;;;;4935685;29;20070;-76
2024/03/07 12:34:09;;;;;;;18.35;11.88;;;;;;;;;;4943325;28;19937;-76
2024/03/07 12:36:45;;;;;;;18.73;11.50;;;;;;;;;;4937591;29;20125;-76
2024/03/07 12:39:24;;;;;;;19.40;11.70;;;;;;;;;;4947279;28;20035;-76
2024/03/07 12:41:53;;;;;;;20.17;11.18;;;;;;;;;;4941594;29;20102;-76
2024/03/07 12:44:19;;;;;;;19.83;11.45;;;;;;;;;;4944555;28;20055;-76
2024/03/07 12:46:48;;;;;;;22.05;11.77;;;;;;;;;;4952385;29;20066;-76
2024/03/07 12:49:15;;;;;;;19.02;10.98;;;;;;;;;;4944911;28;20023;-76
2024/03/07 12:51:44;;;;;;;18.40;11.82;;;;;;;;;;4935418;29;20122;-76
2024/03/07 12:54:09;;;;;;;22.75;12.38;;;;;;;;;;4939184;29;20043;-75
2024/03/07 12:56:37;;;;;;;18.55;11.50;;;;;;;;;;4950751;29;20152;-76
2024/03/07 12:59:08;;;;;;;20.08;12.00;;;;;;;;;;4949739;28;20031;-75
2024/03/07 13:01:37;;;;;;;18.38;11.15;;;;;;;;;;4949673;29;20061;-76
2024/03/07 13:04:04;;;;;;;18.58;11.95;;;;;;;;;;4946331;28;20050;-76
2024/03/07 13:06:29;;;;;;;18.77;11.38;;;;;;;;;;4935204;29;20042;-76
2024/03/07 13:08:58;;;;;;;18.83;10.85;;;;;;;;;;4951172;28;20118;-76
2024/03/07 13:11:23;;;;;;;18.30;11.32;;;;;;;;;;4950373;29;20024;-76
2024/03/07 13:13:49;;;;;;;17.67;11.20;;;;;;;;;;4950759;28;20035;-76
2024/03/07 13:16:14;;;;;;;16.63;10.93;;;;;;;;;;4944453;28;20481;-76
2024/03/07 13:18:40;;;;;;;17.75;10.73;;;;;;;;;;4946630;28;20067;-76
2024/03/07 13:21:06;;;;;;;18.35;11.80;;;;;;;;;;4944914;29;20023;-76
2024/03/07 13:23:32;;;;;;;19.45;12.00;;;;;;;;;;4945703;28;20038;-77
2024/03/07 13:26:01;;;;;;;18.38;12.60;;;;;;;;;;4941746;28;20038;-77
2024/03/07 13:28:28;;;;;;;17.90;11.20;;;;;;;;;;4949555;28;20028;-77
2024/03/07 13:30:54;;;;;;;20.52;11.63;;;;;;;;;;4943802;29;20065;-76
2024/03/07 13:33:20;;;;;;;18.55;11.75;;;;;;;;;;4948615;29;20500;-75
2024/03/07 13:35:45;;;;;;;18.20;12.27;;;;;;;;;;4945196;28;20038;-76
2024/03/07 13:38:12;;;;;;;19.23;12.15;;;;;;;;;;4945889;28;20027;-77
2024/03/07 13:40:39;;;;;;;18.58;11.75;;;;;;;;;;4933796;29;20123;-76
2024/03/07 13:43:05;;;;;;;20.55;12.75;;;;;;;;;;4930779;29;20469;-76
2024/03/07 13:45:43;;;;;;;19.77;12.30;;;;;;;;;;4921855;29;20062;-76
2024/03/07 13:48:10;;;;;;;18.42;12.40;;;;;;;;;;4931879;29;20035;-76
2024/03/07 13:50:45;;;;;;;19.52;12.07;;;;;;;;;;4943748;28;20067;-76
2024/03/07 13:53:18;;;;;;;18.67;12.27;;;;;;;;;;4945361;29;20031;-75
2024/03/07 13:56:07;;;;;;;19.85;12.52;;;;;;;;;;4946834;29;20031;-76
2024/03/07 13:58:32;;;;;;;19.95;12.30;;;;;;;;;;4944694;28;20042;-76
2024/03/07 14:01:24;;;;;;;20.23;12.20;;;;;;;;;;4946332;28;20023;-75
2024/03/07 14:04:03;;;;;;;18.25;12.20;;;;;;;;;;4943726;28;20073;-76
2024/03/07 14:06:44;;;;;;;19.52;12.23;;;;;;;;;;4944286;28;20027;-78
2024/03/07 14:09:36;;;;;;;18.55;12.43;;;;;;;;;;4942385;29;20321;-75
2024/03/07 14:12:30;;;;;;;18.42;12.10;;;;;;;;;;4948244;28;20075;-75
2024/03/07 14:15:46;;;;;;;18.70;12.23;;;;;;;;;;4944437;29;20035;-75
2024/03/07 14:18:39;;;;;;;19.27;12.00;;;;;;;;;;4871826;29;20571;-78
2024/03/07 14:21:38;;;;;;;17.73;11.55;;;;;;;;;;4943874;28;20045;-75
2024/03/07 14:24:31;;;;;;;21.50;12.77;;;;;;;;;;4950099;28;20082;-77
2024/03/07 14:27:22;;;;;;;19.48;12.38;;;;;;;;;;4930562;29;20032;-75